Doylestown, PA (18902)

11:18 PM EST on December 21, 2014 (GMT -0500)
Furlong (Cloverly) | Change Station
CLOSE
Current Station
Personal Weather Station
Location: Furlong, PA
Elevation: 248 ft
Nearby Weather Stations

Elev 248 ft 40.29 °N, 75.09 °W | Updated 3 minutes ago

Overcast
Overcast
27.9 °F
Feels Like 28 °F
N
0.0
Wind Variable Wind from NW
Gusts 8.0 mph

Today
High -- | Low -- °F
--% Chance of Precip.
Yesterday
High -- | Low -- °F
Precip. -- in
7:19 AM 4:37 PM
New Moon, 0% visible
Pressure 30.35 in
Visibility 10.0 miles
Clouds Overcast 2400 ft
Windchill 28 °F
Dew Point 25 °F
Humidity 89%
Rainfall 0.00 in
Snow Depth Not available.
UV 0 out of 12
Pollen .10 out of 12
Air Quality Not available.
Flu Activity Not available.
METAR KDYL 220354Z AUTO 00000KT 10SM OVC024 M02/M04 A3032 RMK AO2 SLP275 T10221044

More Conditions Fewer Conditions

Pressure 30.35 in
Visibility 10.0 miles
Clouds Overcast 2400 ft
Windchill 28 °F
Dew Point 25 °F
Humidity 89%
Rainfall 0.00 in
Snow Depth Not available.
UV 0 out of 12
Pollen .10 out of 12
Air Quality Not available.
Flu Activity Not available.
METAR KDYL 220354Z AUTO 00000KT 10SM OVC024 M02/M04 A3032 RMK AO2 SLP275 T10221044

More Conditions Fewer Conditions

10-Day Weather Forecast

Almanac

Astronomy

Dec. 21, 2014 Rise Set
Actual Time
Civil Twilight
Nautical Twilight
Astronomical Twilight
Moon
Length of Visible Light
Length of Day
Tomorrow will be .
, % of the Moon is Illuminated

Today's Extremes

State Highs State Lows

Community

WunderPhotos

Upload Photos

1,779,534 photos uploaded!

WunderBlogs® & News

Nearby

Air Quality

  Air Quality AQ Index Pollutant
Not available.

Snow Depth

Station Depth Elevation

Earthquake Activity

City Distance Mag. Time & Date
Minimum magnitude displayed is 2.5.

Coastal Water Temperatures

Place Temperature

Nearby Weather Stations